Time;durP1;ratioP1;P1;durP2;ratioP2;P2;SDS_P1;SDS_P2;PMS_P1;PMS_P2;Temp;Humidity;BMP_temperature;BMP_pressure;BME280_temperature;BME280_humidity;BME280_pressure;Samples;Min_cycle;Max_cycle;Signal;HPM_P1;HPM_P2
2022/06/16 00:01:26;;;;;;;4.10;1.63;;;12.30;1.00;;;;;;5056709;28;20036;-25
2022/06/16 00:03:52;;;;;;;4.13;1.83;;;12.30;1.00;;;;;;5074351;28;20082;-25
2022/06/16 00:06:17;;;;;;;4.75;1.50;;;12.30;1.00;;;;;;5074646;28;20174;-25
2022/06/16 00:08:43;;;;;;;4.65;2.13;;;12.40;1.00;;;;;;5074339;28;20044;-25
2022/06/16 00:11:17;;;;;;;4.47;1.73;;;12.40;1.00;;;;;;5074173;28;20495;-25
2022/06/16 00:13:44;;;;;;;5.97;1.98;;;12.40;1.00;;;;;;5058200;28;20048;-25
2022/06/16 00:16:10;;;;;;;4.28;1.33;;;12.40;1.00;;;;;;5074191;28;20044;-25
2022/06/16 00:18:37;;;;;;;5.70;1.60;;;12.40;1.00;;;;;;5073647;28;20133;-25
2022/06/16 00:21:04;;;;;;;6.88;1.70;;;12.40;1.00;;;;;;5074637;28;20088;-25
2022/06/16 00:23:30;;;;;;;3.83;1.63;;;12.30;1.00;;;;;;5073927;28;20060;-25
2022/06/16 00:25:56;;;;;;;5.03;1.85;;;12.30;1.00;;;;;;5074044;28;20075;-25
2022/06/16 00:28:22;;;;;;;8.35;2.28;;;12.30;1.00;;;;;;5073048;28;20045;-25
2022/06/16 00:30:47;;;;;;;8.48;2.70;;;12.30;1.00;;;;;;5074000;28;20084;-25
2022/06/16 00:33:13;;;;;;;4.53;1.90;;;12.30;1.00;;;;;;5074799;28;20119;-25
2022/06/16 00:35:39;;;;;;;7.35;2.72;;;12.30;1.00;;;;;;5073967;28;20363;-25
2022/06/16 00:38:05;;;;;;;6.93;2.28;;;12.30;1.00;;;;;;5074710;28;20079;-25
2022/06/16 00:40:31;;;;;;;7.18;3.00;;;12.20;1.00;;;;;;5073923;28;20087;-25
2022/06/16 00:42:57;;;;;;;5.28;2.45;;;12.30;1.00;;;;;;5073816;28;20045;-25
2022/06/16 00:45:43;;;;;;;5.65;2.70;;;12.30;1.00;;;;;;5073387;28;20370;-25
2022/06/16 00:48:16;;;;;;;7.55;2.85;;;12.30;1.00;;;;;;5073639;28;20383;-25
2022/06/16 00:50:44;;;;;;;5.85;2.63;;;12.30;1.00;;;;;;5074071;28;20561;-25
2022/06/16 00:53:10;;;;;;;5.07;2.85;;;12.30;1.00;;;;;;5073719;28;20056;-25
2022/06/16 00:55:35;;;;;;;4.97;3.10;;;12.30;1.00;;;;;;5073686;28;20045;-25
2022/06/16 00:58:02;;;;;;;6.90;2.47;;;12.30;1.00;;;;;;5056032;28;20075;-25
2022/06/16 01:00:45;;;;;;;7.55;2.90;;;12.20;1.00;;;;;;5072670;28;20053;-25
2022/06/16 01:03:11;;;;;;;5.72;2.85;;;12.20;1.00;;;;;;5072575;28;20040;-25
2022/06/16 01:05:37;;;;;;;3.20;2.58;;;12.10;1.00;;;;;;5073613;28;20079;-25
2022/06/16 01:08:04;;;;;;;6.43;2.70;;;12.00;1.00;;;;;;5074669;28;20462;-25
2022/06/16 01:10:38;;;;;;;7.30;3.03;;;12.00;1.00;;;;;;5073461;28;20049;-25
2022/06/16 01:13:41;;;;;;;9.40;3.60;;;12.00;1.00;;;;;;5074160;28;20076;-25
2022/06/16 01:16:26;;;;;;;6.55;3.50;;;12.00;1.00;;;;;;5074090;28;20040;-25
2022/06/16 01:19:38;;;;;;;5.47;2.60;;;12.00;1.00;;;;;;5073520;28;20058;-25
2022/06/16 01:22:17;;;;;;;7.25;3.28;;;11.90;1.00;;;;;;5073476;28;20051;-25
2022/06/16 01:25:04;;;;;;;8.90;3.28;;;11.80;1.00;;;;;;5072017;28;20100;-25
2022/06/16 01:28:14;;;;;;;8.00;2.67;;;11.70;1.00;;;;;;5073417;28;20051;-25
2022/06/16 01:30:46;;;;;;;5.65;2.88;;;11.60;72.20;;;;;;5076359;28;20505;-25
2022/06/16 01:33:23;;;;;;;6.10;3.80;;;11.60;71.30;;;;;;5077214;28;20052;-25
2022/06/16 01:35:49;;;;;;;5.30;3.15;;;11.60;85.60;;;;;;5078178;28;20067;-24
2022/06/16 01:38:46;;;;;;;8.90;3.83;;;11.60;99.90;;;;;;5077248;28;20486;-24
2022/06/16 01:41:26;;;;;;;5.93;2.95;;;11.50;99.90;;;;;;5077749;28;20083;-25
2022/06/16 01:44:01;;;;;;;6.78;3.13;;;11.60;99.90;;;;;;5076715;28;20396;-25
2022/06/16 01:46:31;;;;;;;6.90;3.17;;;11.60;99.90;;;;;;5077091;28;20137;-25
2022/06/16 01:49:09;;;;;;;7.03;2.92;;;11.60;99.90;;;;;;5077086;28;20048;-25
2022/06/16 01:51:43;;;;;;;6.47;2.90;;;11.60;99.90;;;;;;5076066;28;20402;-25
2022/06/16 01:54:32;;;;;;;7.50;3.05;;;11.60;99.90;;;;;;5076850;28;20056;-25
2022/06/16 01:57:12;;;;;;;5.93;2.63;;;11.70;99.90;;;;;;5077159;28;20059;-25
2022/06/16 01:59:48;;;;;;;6.25;2.60;;;11.80;99.90;;;;;;5075745;28;20040;-25
2022/06/16 02:02:17;;;;;;;6.90;2.53;;;11.90;99.90;;;;;;5077422;28;20060;-25
2022/06/16 02:04:46;;;;;;;7.90;2.92;;;11.90;99.90;;;;;;5076897;28;20053;-25
2022/06/16 02:07:17;;;;;;;5.32;2.47;;;11.90;99.90;;;;;;5076630;28;20082;-25
2022/06/16 02:09:49;;;;;;;5.78;2.72;;;12.00;99.90;;;;;;5076559;28;20044;-25
2022/06/16 02:15:46;;;;;;;5.68;2.30;;;12.10;99.90;;;;;;5077128;28;20135;-25
2022/06/16 02:18:17;;;;;;;7.05;3.40;;;12.10;99.90;;;;;;5075840;28;20052;-25
2022/06/16 02:21:13;;;;;;;4.38;2.10;;;12.10;99.90;;;;;;5077014;28;20048;-25
2022/06/16 02:23:40;;;;;;;8.70;2.35;;;12.10;99.90;;;;;;5076667;28;20494;-25
2022/06/16 02:26:06;;;;;;;4.57;2.25;;;12.10;99.90;;;;;;5075390;28;20059;-25
2022/06/16 02:28:45;;;;;;;9.48;2.85;;;12.00;99.90;;;;;;5076054;28;20497;-25
2022/06/16 02:31:29;;;;;;;5.28;2.90;;;12.00;99.90;;;;;;5077123;28;20072;-25
2022/06/16 02:34:06;;;;;;;8.75;3.40;;;11.80;99.90;;;;;;5075561;28;20063;-25
2022/06/16 02:36:51;;;;;;;5.15;3.05;;;11.60;99.90;;;;;;5076175;28;20040;-25
2022/06/16 02:39:36;;;;;;;6.82;3.70;;;11.50;99.90;;;;;;5076026;28;20105;-25
2022/06/16 02:42:19;;;;;;;8.70;3.13;;;11.30;99.90;;;;;;5075497;28;20049;-24
2022/06/16 02:45:18;;;;;;;7.07;3.17;;;11.20;99.90;;;;;;5076808;28;20037;-25
2022/06/16 02:48:07;;;;;;;7.55;3.55;;;11.10;99.90;;;;;;5068557;28;20060;-25
2022/06/16 02:50:36;;;;;;;6.18;3.28;;;11.00;99.90;;;;;;5076765;28;20124;-25
2022/06/16 02:53:13;;;;;;;7.18;3.40;;;10.90;99.90;;;;;;5076404;28;20048;-25
2022/06/16 02:55:43;;;;;;;4.65;3.28;;;10.90;99.90;;;;;;5075849;28;20054;-25
2022/06/16 02:58:14;;;;;;;8.73;4.30;;;10.80;99.90;;;;;;5075802;28;20045;-24
2022/06/16 03:00:50;;;;;;;6.65;3.15;;;10.80;99.90;;;;;;5075743;28;20049;-24
2022/06/16 03:03:22;;;;;;;5.45;3.10;;;10.80;1.00;;;;;;5074464;28;20041;-25
2022/06/16 03:05:53;;;;;;;7.65;4.18;;;10.80;1.00;;;;;;5076143;28;20486;-25
2022/06/16 03:08:21;;;;;;;10.95;3.67;;;10.70;1.00;;;;;;5076455;28;20049;-25
2022/06/16 03:10:53;;;;;;;8.98;4.30;;;10.70;1.00;;;;;;5075078;28;20490;-25
2022/06/16 03:13:30;;;;;;;11.13;4.47;;;10.60;1.00;;;;;;5074681;28;20037;-25
2022/06/16 03:15:59;;;;;;;6.45;4.47;;;10.60;1.00;;;;;;5075081;28;20437;-24
2022/06/16 03:18:25;;;;;;;6.65;4.25;;;10.50;1.00;;;;;;5075338;28;20086;-25
2022/06/16 03:20:53;;;;;;;7.63;4.90;;;10.40;1.00;;;;;;5074128;28;20206;-25
2022/06/16 03:23:19;;;;;;;8.02;6.15;;;10.40;1.00;;;;;;5074910;28;20056;-24
2022/06/16 03:25:46;;;;;;;11.40;6.40;;;10.30;45.50;;;;;;5075056;28;20052;-24
2022/06/16 03:28:13;;;;;;;8.07;6.38;;;10.30;99.90;;;;;;5075129;28;20047;-24
2022/06/16 03:30:40;;;;;;;9.60;5.88;;;10.30;99.90;;;;;;5074776;28;20581;-24
2022/06/16 03:33:07;;;;;;;11.93;6.60;;;10.20;99.90;;;;;;5075059;28;20110;-24
2022/06/16 03:35:34;;;;;;;12.18;6.10;;;10.20;99.90;;;;;;5075582;28;20094;-24
2022/06/16 03:38:04;;;;;;;7.75;6.10;;;10.20;99.90;;;;;;5075224;28;20131;-24
2022/06/16 03:40:30;;;;;;;12.40;7.30;;;10.20;99.90;;;;;;5074831;28;20374;-25
2022/06/16 03:42:56;;;;;;;12.57;7.20;;;10.20;99.90;;;;;;5075287;28;20037;-25
2022/06/16 03:45:21;;;;;;;10.45;6.28;;;10.30;99.90;;;;;;5074838;28;20061;-25
2022/06/16 03:47:48;;;;;;;8.55;6.13;;;10.30;99.90;;;;;;5073577;28;20053;-25
2022/06/16 03:50:16;;;;;;;9.88;6.13;;;10.30;99.90;;;;;;5074683;28;20049;-24
2022/06/16 03:52:42;;;;;;;13.57;6.10;;;10.20;99.90;;;;;;5072797;28;20057;-24
2022/06/16 03:55:08;;;;;;;10.38;6.32;;;10.30;99.90;;;;;;5074475;28;20131;-24
2022/06/16 03:57:34;;;;;;;16.83;6.72;;;10.40;99.90;;;;;;5074549;28;20056;-24
2022/06/16 04:00:00;;;;;;;12.77;7.20;;;10.50;99.90;;;;;;5072978;28;20045;-25
2022/06/16 04:02:25;;;;;;;11.88;7.43;;;10.60;99.90;;;;;;5074430;28;20044;-24
2022/06/16 04:04:51;;;;;;;10.82;7.00;;;10.70;99.90;;;;;;5074589;28;20047;-24
2022/06/16 04:07:17;;;;;;;11.13;6.15;;;10.80;99.90;;;;;;5074237;28;20504;-25
2022/06/16 04:09:42;;;;;;;8.95;6.15;;;10.90;1.00;;;;;;5073093;28;20056;-25
2022/06/16 04:12:08;;;;;;;12.18;5.82;;;11.00;1.00;;;;;;5074147;28;20044;-25
2022/06/16 04:14:34;;;;;;;13.55;6.28;;;11.20;1.00;;;;;;5073157;28;20120;-25
2022/06/16 04:17:00;;;;;;;11.45;5.65;;;11.40;1.00;;;;;;5073906;28;20060;-25
2022/06/16 04:19:26;;;;;;;9.40;5.45;;;11.50;1.00;;;;;;5073245;28;20044;-25
2022/06/16 04:21:53;;;;;;;6.65;5.55;;;11.70;1.00;;;;;;5074454;28;20044;-25
2022/06/16 04:24:21;;;;;;;10.75;6.45;;;11.90;1.00;;;;;;5073487;28;20118;-25
2022/06/16 04:26:51;;;;;;;9.75;5.97;;;12.00;1.00;;;;;;5074012;28;20043;-25
2022/06/16 04:29:17;;;;;;;15.05;6.70;;;12.20;1.00;;;;;;5073956;28;20055;-25
2022/06/16 04:31:44;;;;;;;9.55;5.55;;;12.40;1.00;;;;;;5073976;28;20094;-25
2022/06/16 04:34:10;;;;;;;6.78;5.60;;;12.60;1.00;;;;;;5073591;28;20044;-25
2022/06/16 04:36:37;;;;;;;9.05;5.60;;;12.70;1.00;;;;;;5073868;28;20060;-25
2022/06/16 04:39:03;;;;;;;8.40;5.72;;;13.00;1.00;;;;;;5073116;28;20044;-25
2022/06/16 04:41:29;;;;;;;8.73;4.68;;;13.30;1.00;;;;;;5073850;28;20515;-25
2022/06/16 04:43:55;;;;;;;11.80;6.25;;;13.50;1.00;;;;;;5073752;28;20141;-25
2022/06/16 04:46:22;;;;;;;8.68;4.57;;;13.70;1.00;;;;;;5074079;28;20133;-25
2022/06/16 04:48:47;;;;;;;11.48;4.55;;;13.90;1.00;;;;;;5073818;28;20401;-25
2022/06/16 04:51:15;;;;;;;9.40;4.22;;;14.00;1.00;;;;;;5073097;28;20178;-25
2022/06/16 04:53:41;;;;;;;8.95;3.88;;;14.20;99.90;;;;;;5056956;28;20055;-25
2022/06/16 04:56:07;;;;;;;8.20;3.92;;;14.30;99.90;;;;;;5072542;28;20045;-25
2022/06/16 04:58:33;;;;;;;6.47;4.35;;;14.40;99.90;;;;;;5073653;28;20044;-25
2022/06/16 05:00:59;;;;;;;8.98;3.88;;;14.50;99.90;;;;;;5074449;28;20132;-25
2022/06/16 05:03:27;;;;;;;7.57;3.80;;;14.70;99.90;;;;;;5073876;28;20084;-25
2022/06/16 05:05:55;;;;;;;14.20;4.85;;;15.50;7.10;;;;;;5073581;28;20040;-25
2022/06/16 05:08:21;;;;;;;7.00;3.35;;;16.40;1.00;;;;;;5073647;28;20054;-25
2022/06/16 05:10:49;;;;;;;12.52;4.60;;;17.20;99.90;;;;;;5073514;28;20040;-25
2022/06/16 05:13:16;;;;;;;8.05;3.88;;;17.20;99.90;;;;;;5073552;28;20106;-25
2022/06/16 05:15:42;;;;;;;9.63;4.05;;;17.00;99.90;;;;;;5073208;28;20424;-25
2022/06/16 05:18:09;;;;;;;8.35;3.92;;;16.80;96.40;;;;;;5073515;28;20041;-25
2022/06/16 05:20:36;;;;;;;10.90;4.88;;;16.60;99.90;;;;;;5072805;28;20041;-25
2022/06/16 05:23:02;;;;;;;7.45;4.72;;;16.20;99.90;;;;;;5074007;28;20084;-25
2022/06/16 05:25:28;;;;;;;11.48;4.68;;;15.80;99.90;;;;;;5073492;28;20048;-25
2022/06/16 05:27:53;;;;;;;7.80;4.60;;;15.50;99.90;;;;;;5073983;28;20390;-25
2022/06/16 05:30:20;;;;;;;11.63;5.10;;;15.40;99.90;;;;;;5071828;28;20052;-25
2022/06/16 05:32:45;;;;;;;8.57;4.40;;;15.90;99.90;;;;;;5073388;28;20045;-25
2022/06/16 05:35:11;;;;;;;10.10;4.63;;;16.50;99.90;;;;;;5056210;28;20091;-25
2022/06/16 05:37:38;;;;;;;9.52;4.32;;;16.90;99.90;;;;;;5073340;28;20065;-25
2022/06/16 05:40:04;;;;;;;8.88;4.40;;;17.30;58.40;;;;;;5073278;28;20500;-25
2022/06/16 05:42:30;;;;;;;12.35;4.85;;;17.90;1.00;;;;;;5072957;28;20380;-25
2022/06/16 05:44:56;;;;;;;7.90;4.32;;;18.30;1.00;;;;;;5071982;28;20098;-25
2022/06/16 05:47:22;;;;;;;8.00;4.20;;;18.60;1.00;;;;;;5056413;28;20095;-25
2022/06/16 05:49:47;;;;;;;12.10;4.60;;;18.80;99.90;;;;;;5073195;28;20178;-25
2022/06/16 05:52:18;;;;;;;8.02;3.53;;;19.00;99.90;;;;;;5073174;28;20041;-25
2022/06/16 05:54:45;;;;;;;10.27;4.47;;;19.30;99.90;;;;;;5073734;28;20044;-25
2022/06/16 05:57:11;;;;;;;9.75;3.65;;;19.70;99.90;;;;;;5073362;28;20502;-25
2022/06/16 05:59:38;;;;;;;10.85;3.33;;;19.90;99.90;;;;;;5073099;28;20048;-25
2022/06/16 06:02:14;;;;;;;8.10;3.60;;;20.20;99.90;;;;;;5073141;28;20508;-25
2022/06/16 06:04:41;;;;;;;5.97;3.30;;;20.40;99.90;;;;;;5072425;28;20036;-25
2022/06/16 06:07:07;;;;;;;4.72;2.38;;;20.50;99.90;;;;;;5073042;28;20070;-25
2022/06/16 06:18:06;;;;;;;7.13;3.63;;;21.00;91.60;;;;;;5076668;28;20051;-25
2022/06/16 06:20:32;;;;;;;11.25;3.83;;;21.10;53.10;;;;;;5077023;28;20055;-25
2022/06/16 06:22:57;;;;;;;8.48;3.28;;;21.00;11.60;;;;;;5075710;28;20048;-25
2022/06/16 06:25:24;;;;;;;6.95;3.05;;;21.20;1.00;;;;;;5076452;28;20052;-25
2022/06/16 06:27:49;;;;;;;8.10;2.60;;;21.40;1.00;;;;;;5076898;28;20052;-25
2022/06/16 06:30:22;;;;;;;9.77;2.63;;;21.50;1.00;;;;;;5076635;28;20105;-25
2022/06/16 06:32:49;;;;;;;4.97;2.22;;;21.80;1.00;;;;;;5076299;28;20181;-25
2022/06/16 06:35:19;;;;;;;6.35;2.92;;;22.30;1.00;;;;;;5075876;28;20425;-25
2022/06/16 06:37:45;;;;;;;5.07;2.20;;;22.40;99.90;;;;;;5076543;28;20044;-25
2022/06/16 06:40:27;;;;;;;4.03;1.88;;;22.70;99.90;;;;;;5074944;28;20520;-25
2022/06/16 06:42:53;;;;;;;6.40;2.40;;;22.90;99.90;;;;;;5076119;28;20060;-25
2022/06/16 06:45:19;;;;;;;8.50;2.17;;;22.70;99.90;;;;;;5076015;28;20282;-25
2022/06/16 06:47:46;;;;;;;3.67;1.70;;;23.10;99.90;;;;;;5075833;28;20059;-25
2022/06/16 06:50:22;;;;;;;7.13;2.05;;;23.20;99.90;;;;;;5075902;28;20048;-25
2022/06/16 06:52:48;;;;;;;6.47;2.20;;;23.20;99.90;;;;;;5076562;28;20052;-25
2022/06/16 06:55:14;;;;;;;4.40;1.77;;;23.30;99.90;;;;;;5075870;28;20054;-25
2022/06/16 06:57:40;;;;;;;4.63;1.40;;;23.60;99.90;;;;;;5075815;28;20048;-25
2022/06/16 07:00:07;;;;;;;3.85;1.02;;;23.50;99.90;;;;;;5075787;28;20044;-25
2022/06/16 07:02:32;;;;;;;4.75;1.30;;;24.00;99.90;;;;;;5074753;28;20053;-25
2022/06/16 07:04:58;;;;;;;3.97;0.70;;;24.20;99.90;;;;;;5076129;28;20126;-25
2022/06/16 07:07:25;;;;;;;4.63;0.80;;;23.80;1.00;;;;;;5075621;28;20055;-25
2022/06/16 07:09:51;;;;;;;2.65;0.63;;;24.00;1.00;;;;;;5075477;28;20526;-25
2022/06/16 07:12:18;;;;;;;4.22;0.90;;;24.10;1.00;;;;;;5076085;28;20044;-25
2022/06/16 07:14:46;;;;;;;2.63;0.88;;;23.90;1.00;;;;;;5075783;28;20131;-25
2022/06/16 07:17:13;;;;;;;7.72;1.55;;;24.10;1.00;;;;;;5075650;28;20151;-26
2022/06/16 07:19:39;;;;;;;6.15;1.63;;;23.60;1.00;;;;;;5074102;28;20081;-25
2022/06/16 07:22:06;;;;;;;6.43;1.42;;;23.40;1.00;;;;;;5075300;28;20045;-25
2022/06/16 07:24:33;;;;;;;2.08;1.20;;;23.00;1.00;;;;;;5075304;28;20066;-25
2022/06/16 07:27:00;;;;;;;8.63;1.13;;;23.00;1.00;;;;;;5075177;28;20051;-25
2022/06/16 07:29:26;;;;;;;4.80;1.45;;;23.20;1.00;;;;;;5074183;28;20054;-25
2022/06/16 07:31:52;;;;;;;3.90;1.20;;;23.50;1.00;;;;;;5075401;28;20044;-25
2022/06/16 07:34:18;;;;;;;3.42;1.27;;;23.40;1.00;;;;;;5073852;28;20041;-25
2022/06/16 07:36:43;;;;;;;4.60;1.65;;;23.40;1.00;;;;;;5074045;28;20105;-25
2022/06/16 07:39:11;;;;;;;4.03;1.38;;;23.00;1.00;;;;;;5074030;28;20205;-25
2022/06/16 07:41:38;;;;;;;4.50;1.25;;;22.80;1.00;;;;;;5075470;28;20378;-25
2022/06/16 07:44:10;;;;;;;3.25;1.50;;;23.10;1.00;;;;;;5074830;28;20449;-25
2022/06/16 07:46:37;;;;;;;4.70;1.58;;;23.60;1.00;;;;;;5074872;28;20055;-25
2022/06/16 07:49:07;;;;;;;4.28;1.73;;;23.60;99.90;;;;;;5074711;28;20114;-25
2022/06/16 07:51:33;;;;;;;4.40;1.90;;;23.40;99.90;;;;;;5074706;28;20131;-25
2022/06/16 07:53:59;;;;;;;3.50;1.67;;;23.30;99.90;;;;;;5073967;28;20057;-25
2022/06/16 07:56:25;;;;;;;4.72;1.75;;;23.50;99.90;;;;;;5074607;28;20063;-25
2022/06/16 07:58:51;;;;;;;4.13;1.55;;;23.80;99.90;;;;;;5073103;28;20087;-25
2022/06/16 08:01:17;;;;;;;4.82;1.40;;;24.20;99.90;;;;;;5073558;28;20048;-25
2022/06/16 08:03:42;;;;;;;8.23;1.80;;;24.20;99.90;;;;;;5074111;28;20047;-25
2022/06/16 08:06:12;;;;;;;5.35;1.60;;;24.20;99.90;;;;;;5074467;28;20048;-25
2022/06/16 08:08:38;;;;;;;3.70;1.77;;;24.20;99.90;;;;;;5074399;28;20049;-25
2022/06/16 08:11:05;;;;;;;4.28;1.90;;;24.30;99.90;;;;;;5074235;28;20486;-25
2022/06/16 08:13:31;;;;;;;4.32;1.70;;;24.30;99.90;;;;;;5074568;28;20040;-25
2022/06/16 08:15:57;;;;;;;4.25;1.50;;;24.30;99.90;;;;;;5074288;28;20048;-25
2022/06/16 08:18:25;;;;;;;4.03;1.33;;;24.30;99.90;;;;;;5074195;28;20040;-25
2022/06/16 08:20:52;;;;;;;4.65;1.85;;;24.40;99.90;;;;;;5073864;28;20502;-25
2022/06/16 08:23:18;;;;;;;4.43;1.85;;;24.20;99.90;;;;;;5073709;28;20041;-25
2022/06/16 08:25:46;;;;;;;4.50;2.13;;;23.80;99.90;;;;;;5074378;28;20109;-25
2022/06/16 08:28:15;;;;;;;5.15;1.67;;;23.90;99.90;;;;;;5073771;28;20532;-25
2022/06/16 08:30:44;;;;;;;3.63;1.35;;;24.00;99.90;;;;;;5074570;28;20080;-25
2022/06/16 08:33:13;;;;;;;3.67;1.65;;;23.80;99.90;;;;;;5073967;28;20486;-25
2022/06/16 08:35:44;;;;;;;2.90;1.30;;;23.80;99.90;;;;;;5073920;28;20049;-25
2022/06/16 08:38:10;;;;;;;5.03;2.05;;;23.90;99.90;;;;;;5073546;28;20106;-25
2022/06/16 08:40:44;;;;;;;2.45;1.40;;;24.20;99.90;;;;;;5074110;28;20390;-26
2022/06/16 08:43:28;;;;;;;4.82;2.00;;;24.50;99.90;;;;;;5073858;28;20041;-25
2022/06/16 08:45:58;;;;;;;3.28;1.60;;;25.00;99.90;;;;;;5074714;28;20111;-25
2022/06/16 08:49:02;;;;;;;3.88;1.88;;;24.90;99.90;;;;;;5074350;28;20044;-26
2022/06/16 08:51:52;;;;;;;9.75;2.17;;;25.30;99.90;;;;;;5073663;28;20048;-25
2022/06/16 08:54:44;;;;;;;3.97;1.58;;;24.50;99.90;;;;;;5073499;28;20490;-25
2022/06/16 08:57:39;;;;;;;5.25;2.10;;;24.50;99.90;;;;;;5074310;28;20040;-25
2022/06/16 09:00:18;;;;;;;4.28;1.95;;;24.90;99.90;;;;;;5073003;28;20052;-25
2022/06/16 09:02:58;;;;;;;5.88;2.10;;;25.00;99.90;;;;;;5074563;28;20206;-25
2022/06/16 09:05:46;;;;;;;4.75;2.30;;;25.00;99.90;;;;;;5074498;28;20052;-26
2022/06/16 09:08:42;;;;;;;4.43;2.20;;;25.40;99.90;;;;;;5073856;28;20048;-25
2022/06/16 09:11:23;;;;;;;4.22;2.17;;;25.20;99.90;;;;;;5073843;28;20436;-25
2022/06/16 09:13:58;;;;;;;4.55;2.20;;;25.20;99.90;;;;;;5072604;28;20139;-25
2022/06/16 09:16:39;;;;;;;3.38;2.10;;;25.30;99.90;;;;;;5073517;28;20052;-26
2022/06/16 09:19:08;;;;;;;3.80;2.53;;;25.40;99.90;;;;;;5073833;28;20173;-25
2022/06/16 09:21:39;;;;;;;4.43;2.30;;;25.60;99.90;;;;;;5073459;28;20060;-25
2022/06/16 09:24:14;;;;;;;3.27;2.30;;;25.70;99.90;;;;;;5073189;28;20059;-25
2022/06/16 09:26:43;;;;;;;3.58;2.13;;;25.90;99.90;;;;;;5072272;28;20500;-25
2022/06/16 09:29:15;;;;;;;5.18;2.40;;;25.90;99.90;;;;;;5073329;28;20525;-25
2022/06/16 09:31:51;;;;;;;4.47;2.58;;;26.00;99.90;;;;;;5072681;28;20131;-25
2022/06/16 09:34:33;;;;;;;7.70;3.03;;;26.10;99.90;;;;;;5073371;28;20076;-28
2022/06/16 09:37:03;;;;;;;4.68;2.60;;;26.00;99.90;;;;;;5073706;28;20045;-28
2022/06/16 09:39:40;;;;;;;3.15;2.20;;;25.70;99.90;;;;;;5072182;28;20049;-28
2022/06/16 09:42:35;;;;;;;3.45;1.95;;;25.70;99.90;;;;;;5073598;28;20418;-28
2022/06/16 09:45:09;;;;;;;5.60;1.85;;;25.60;99.90;;;;;;5072308;28;20562;-28
2022/06/16 09:47:55;;;;;;;4.10;1.73;;;25.60;99.90;;;;;;5072094;28;20127;-28
2022/06/16 09:50:23;;;;;;;5.70;2.15;;;25.70;99.90;;;;;;5074058;28;20049;-28
2022/06/16 09:52:52;;;;;;;6.20;2.40;;;25.40;99.90;;;;;;5077021;28;20044;-28
2022/06/16 09:55:22;;;;;;;4.82;2.70;;;25.30;99.90;;;;;;5076957;28;20044;-28
2022/06/16 09:57:56;;;;;;;4.68;2.50;;;25.00;99.90;;;;;;5077820;28;20106;-28
2022/06/16 10:00:25;;;;;;;5.68;2.53;;;24.70;99.90;;;;;;5077715;28;20056;-28
2022/06/16 10:02:58;;;;;;;4.72;2.90;;;24.50;99.90;;;;;;5076736;28;20135;-28
2022/06/16 10:05:57;;;;;;;3.97;2.20;;;24.70;99.90;;;;;;5077581;28;20123;-28
2022/06/16 10:08:38;;;;;;;7.15;2.45;;;25.20;99.90;;;;;;5077075;28;20123;-28
2022/06/16 10:11:14;;;;;;;6.50;2.53;;;25.70;99.90;;;;;;5076639;28;20124;-28
2022/06/16 10:14:14;;;;;;;5.10;2.22;;;25.80;99.90;;;;;;5076616;28;20045;-28
2022/06/16 10:16:46;;;;;;;7.57;2.58;;;26.10;99.90;;;;;;5064302;28;20110;-28
2022/06/16 10:19:12;;;;;;;2.95;1.98;;;26.30;99.90;;;;;;5077101;28;20402;-28
2022/06/16 10:21:37;;;;;;;4.07;2.13;;;26.70;99.90;;;;;;5076151;28;20051;-29
2022/06/16 10:24:07;;;;;;;3.72;2.17;;;27.00;99.90;;;;;;5076259;28;20486;-29
2022/06/16 10:26:34;;;;;;;6.43;2.78;;;27.20;99.90;;;;;;5076383;28;20048;-28
2022/06/16 10:29:20;;;;;;;4.00;2.75;;;27.30;99.90;;;;;;5076354;28;20080;-28
2022/06/16 10:31:48;;;;;;;5.93;3.15;;;26.80;99.90;;;;;;5076636;28;20098;-28
2022/06/16 10:34:38;;;;;;;4.72;3.00;;;26.80;99.90;;;;;;5076226;28;20084;-28
2022/06/16 10:37:23;;;;;;;3.80;2.38;;;27.10;99.90;;;;;;5075497;28;20117;-29
2022/06/16 10:39:58;;;;;;;5.07;1.88;;;27.30;99.90;;;;;;5076542;28;20059;-28
2022/06/16 10:42:34;;;;;;;6.13;2.28;;;27.10;99.90;;;;;;5076108;28;20044;-28
2022/06/16 10:45:15;;;;;;;5.57;2.53;;;27.00;99.90;;;;;;5075703;28;20051;-28
2022/06/16 10:47:45;;;;;;;3.58;2.00;;;26.50;99.90;;;;;;5076896;28;20087;-28
2022/06/16 10:50:22;;;;;;;4.95;2.83;;;26.50;99.90;;;;;;5076003;28;20669;-28
2022/06/16 10:52:59;;;;;;;4.40;2.15;;;27.00;99.90;;;;;;5076825;28;20379;-28
2022/06/16 10:55:29;;;;;;;6.55;2.35;;;27.10;99.90;;;;;;5076502;28;20402;-29
2022/06/16 10:57:58;;;;;;;6.63;2.55;;;27.50;99.90;;;;;;5075833;28;20128;-29
2022/06/16 11:00:25;;;;;;;5.50;2.38;;;27.80;99.90;;;;;;5076626;28;20048;-28
2022/06/16 11:03:01;;;;;;;8.63;2.85;;;27.80;99.90;;;;;;5075287;28;20437;-28
2022/06/16 11:05:31;;;;;;;2.85;2.40;;;27.50;99.90;;;;;;5076073;28;20070;-28
2022/06/16 11:08:12;;;;;;;3.05;2.45;;;27.70;99.90;;;;;;5075647;28;20037;-28
2022/06/16 11:10:40;;;;;;;3.13;2.05;;;27.80;99.90;;;;;;5075724;28;20052;-29
2022/06/16 11:13:14;;;;;;;4.07;2.65;;;27.40;99.90;;;;;;5075528;28;20502;-26
2022/06/16 11:15:46;;;;;;;5.82;2.25;;;27.20;99.90;;;;;;5076375;28;20049;-26
2022/06/16 11:18:16;;;;;;;3.13;1.67;;;27.60;99.90;;;;;;5076015;28;20052;-26
2022/06/16 11:20:44;;;;;;;3.50;2.08;;;27.60;99.90;;;;;;5075941;28;20052;-26
2022/06/16 11:23:32;;;;;;;5.78;2.05;;;27.80;99.90;;;;;;5076062;28;20120;-26
2022/06/16 11:26:07;;;;;;;6.78;1.80;;;28.20;99.90;;;;;;5074685;28;20052;-26
2022/06/16 11:28:42;;;;;;;3.33;1.50;;;28.40;99.90;;;;;;5075277;28;20048;-26
2022/06/16 11:31:08;;;;;;;3.22;2.13;;;28.30;99.90;;;;;;5075780;28;20233;-26
2022/06/16 11:36:39;;;;;;;4.70;2.38;;;27.30;99.90;;;;;;5075941;28;20075;-26
2022/06/16 11:39:28;;;;;;;5.57;2.65;;;26.70;99.90;;;;;;5075288;28;20479;-26
2022/06/16 11:41:55;;;;;;;5.30;2.15;;;26.50;99.90;;;;;;5073819;28;20048;-26
2022/06/16 11:44:40;;;;;;;3.42;1.70;;;26.30;99.90;;;;;;5074832;28;20120;-27
2022/06/16 11:47:09;;;;;;;3.80;1.60;;;26.70;99.90;;;;;;5073877;28;20097;-26
2022/06/16 11:49:42;;;;;;;3.70;1.77;;;26.80;99.90;;;;;;5074778;28;20432;-26
2022/06/16 11:52:19;;;;;;;6.35;1.77;;;27.10;99.90;;;;;;5074803;28;20045;-26
2022/06/16 11:55:24;;;;;;;7.50;2.42;;;26.90;99.90;;;;;;5074706;28;20044;-26
2022/06/16 11:58:11;;;;;;;3.47;1.60;;;27.00;99.90;;;;;;5075028;28;20413;-26
2022/06/16 12:00:44;;;;;;;4.60;2.05;;;27.30;99.90;;;;;;5074269;28;20406;-25
2022/06/16 12:03:34;;;;;;;3.10;1.85;;;27.00;99.90;;;;;;5075008;28;20433;-25
2022/06/16 12:06:28;;;;;;;4.55;1.80;;;26.30;99.90;;;;;;5075358;28;20044;-25
2022/06/16 12:09:33;;;;;;;3.92;1.92;;;25.70;99.90;;;;;;5063901;28;20088;-25
2022/06/16 12:12:23;;;;;;;3.85;1.65;;;25.00;99.90;;;;;;5070557;28;20056;-26
2022/06/16 12:14:52;;;;;;;3.63;2.00;;;25.10;99.90;;;;;;5073575;28;20482;-25
2022/06/16 12:17:50;;;;;;;5.07;1.73;;;25.20;99.90;;;;;;5073560;28;20551;-26
2022/06/16 12:20:30;;;;;;;3.33;1.75;;;25.90;99.90;;;;;;5074178;28;20087;-27
2022/06/16 12:23:15;;;;;;;4.78;1.60;;;26.00;99.90;;;;;;5056742;28;20470;-27
2022/06/16 12:26:24;;;;;;;4.75;2.85;;;25.70;99.90;;;;;;5074180;28;20048;-26
2022/06/16 12:29:05;;;;;;;4.57;1.95;;;25.80;99.90;;;;;;5054908;28;20071;-27
2022/06/16 12:32:05;;;;;;;3.00;1.65;;;26.00;99.90;;;;;;5073965;28;20054;-28
2022/06/16 12:34:42;;;;;;;3.40;1.50;;;26.40;99.90;;;;;;5074010;28;20037;-27
2022/06/16 12:37:16;;;;;;;7.07;1.88;;;26.70;99.90;;;;;;5073997;28;20055;-27
2022/06/16 12:39:58;;;;;;;3.65;1.77;;;27.00;99.90;;;;;;5073404;28;20052;-27
2022/06/16 12:42:28;;;;;;;3.67;1.65;;;26.70;99.90;;;;;;5072773;28;20052;-27
2022/06/16 12:45:10;;;;;;;5.10;1.60;;;26.40;99.90;;;;;;5074642;28;20036;-26
2022/06/16 12:47:39;;;;;;;3.83;1.87;;;26.70;99.90;;;;;;5073194;28;20048;-27
2022/06/16 12:50:09;;;;;;;3.72;1.52;;;27.00;99.90;;;;;;5073851;28;20663;-27
2022/06/16 12:52:47;;;;;;;4.45;1.77;;;27.00;99.90;;;;;;5072887;28;20110;-27
2022/06/16 12:55:24;;;;;;;6.95;1.80;;;26.60;99.90;;;;;;5072629;28;20048;-27
2022/06/16 12:58:05;;;;;;;3.75;1.60;;;26.50;99.90;;;;;;5073597;28;20136;-27
2022/06/16 13:00:37;;;;;;;3.00;1.60;;;26.70;99.90;;;;;;5073761;28;20036;-27
2022/06/16 13:03:43;;;;;;;4.38;1.92;;;26.40;99.90;;;;;;5073755;28;20090;-27
2022/06/16 13:06:11;;;;;;;3.30;1.83;;;25.90;99.90;;;;;;5072999;28;20076;-27
2022/06/16 13:08:41;;;;;;;3.92;2.20;;;26.00;99.90;;;;;;5073620;28;20044;-27
2022/06/16 13:11:12;;;;;;;4.10;2.05;;;25.90;99.90;;;;;;5074105;28;20055;-27
2022/06/16 13:13:44;;;;;;;6.53;1.83;;;25.90;99.90;;;;;;5073886;28;20040;-27
2022/06/16 13:16:13;;;;;;;4.40;1.42;;;26.20;99.90;;;;;;5074457;28;20453;-27
2022/06/16 13:18:46;;;;;;;2.88;1.33;;;26.20;99.90;;;;;;5073488;28;20044;-27
2022/06/16 13:21:25;;;;;;;5.60;2.08;;;26.50;99.90;;;;;;5073699;28;20056;-27
2022/06/16 13:24:23;;;;;;;4.32;1.85;;;26.30;99.90;;;;;;5072489;28;20102;-28
2022/06/16 13:27:07;;;;;;;3.95;1.50;;;26.20;99.90;;;;;;5069854;28;20398;-27
2022/06/16 13:29:49;;;;;;;7.10;1.75;;;25.90;99.90;;;;;;5077463;28;20052;-27
2022/06/16 13:32:49;;;;;;;4.80;2.03;;;25.60;99.90;;;;;;5076304;28;20056;-28